createdAt,value
2023-04-19T00:02:18.587Z,13.57
2023-04-19T00:07:24.110Z,13.50
2023-04-19T00:12:27.828Z,13.85
2023-04-19T00:17:31.873Z,14.07
2023-04-19T00:22:37.007Z,13.05
2023-04-19T00:27:40.752Z,14.02
2023-04-19T00:32:44.519Z,14.10
2023-04-19T00:37:49.659Z,13.85
2023-04-19T00:42:53.381Z,14.05
2023-04-19T00:47:57.312Z,14.27
2023-04-19T00:53:02.723Z,14.98
2023-04-19T00:58:08.672Z,13.40
2023-04-19T01:03:13.605Z,13.43
2023-04-19T01:08:18.871Z,13.80
2023-04-19T01:13:22.739Z,13.60
2023-04-19T01:18:29.385Z,13.95
2023-04-19T01:23:34.537Z,14.07
2023-04-19T01:28:38.290Z,12.95
2023-04-19T01:33:42.036Z,14.57
2023-04-19T01:38:47.809Z,14.27
2023-04-19T01:43:51.524Z,14.25
2023-04-19T01:48:55.228Z,16.02
2023-04-19T01:54:01.634Z,14.70
2023-04-19T01:59:05.341Z,13.68
2023-04-19T02:04:09.089Z,13.80
2023-04-19T02:09:14.152Z,14.25
2023-04-19T02:14:18.898Z,14.48
2023-04-19T02:19:22.644Z,16.27
2023-04-19T02:24:27.934Z,15.07
2023-04-19T02:29:31.733Z,15.32
2023-04-19T02:34:35.454Z,15.18
2023-04-19T02:39:42.626Z,15.65
2023-04-19T02:44:46.338Z,15.45
2023-04-19T02:49:51.284Z,15.52
2023-04-19T02:54:56.741Z,15.15
2023-04-19T03:00:00.450Z,14.60
2023-04-19T03:05:06.539Z,15.10
2023-04-19T03:10:12.041Z,14.23
2023-04-19T03:15:16.046Z,14.45
2023-04-19T03:20:20.911Z,14.40
2023-04-19T03:25:26.559Z,14.13
2023-04-19T03:30:31.863Z,13.77
2023-04-19T03:35:36.193Z,13.27
2023-04-19T03:40:44.536Z,13.80
2023-04-19T03:45:50.247Z,12.52
2023-04-19T03:50:54.174Z,13.18
2023-04-19T03:55:59.972Z,12.25
2023-04-19T04:01:05.417Z,12.45
2023-04-19T04:06:09.316Z,11.20
2023-04-19T04:11:14.543Z,12.48
2023-04-19T04:16:19.560Z,12.52
2023-04-19T04:21:24.783Z,13.02
2023-04-19T04:26:33.878Z,12.45
2023-04-19T04:31:38.420Z,12.37
2023-04-19T04:36:42.280Z,12.27
2023-04-19T04:41:50.070Z,12.30
2023-04-19T04:46:53.818Z,12.13
2023-04-19T04:51:57.921Z,12.15
2023-04-19T04:57:05.042Z,11.68
2023-04-19T05:02:09.062Z,10.55
2023-04-19T05:07:12.862Z,10.88
2023-04-19T05:12:18.252Z,9.40
2023-04-19T05:17:22.160Z,8.93
2023-04-19T05:22:26.408Z,9.43
2023-04-19T05:27:32.318Z,8.90
2023-04-19T05:32:36.319Z,8.13
2023-04-19T05:37:41.503Z,8.30
2023-04-19T05:42:46.913Z,8.43
2023-04-19T05:47:51.528Z,8.68
2023-04-19T05:52:57.258Z,8.65
2023-04-19T05:58:02.842Z,8.30
2023-04-19T06:03:07.304Z,8.48
2023-04-19T06:08:11.479Z,8.63
2023-04-19T06:13:16.828Z,8.57
2023-04-19T06:18:20.617Z,8.70
2023-04-19T06:23:25.514Z,8.65
2023-04-19T06:28:30.597Z,8.13
2023-04-19T06:33:34.309Z,8.45
2023-04-19T06:38:38.930Z,8.23
2023-04-19T06:43:44.834Z,7.78
2023-04-19T06:48:48.782Z,6.82
2023-04-19T06:53:52.536Z,7.62
2023-04-19T06:58:57.610Z,6.25
2023-04-19T07:04:01.889Z,7.37
2023-04-19T07:09:07.236Z,7.35
2023-04-19T07:14:12.348Z,6.97
2023-04-19T07:19:19.171Z,6.15
2023-04-19T07:24:23.024Z,6.37
2023-04-19T07:29:28.165Z,5.95
2023-04-19T07:34:31.904Z,6.22
2023-04-19T07:39:35.765Z,6.45
2023-04-19T07:44:40.808Z,6.57
2023-04-19T07:49:44.688Z,5.65
2023-04-19T07:54:48.438Z,6.10
2023-04-19T07:59:57.893Z,5.85
2023-04-19T08:05:02.519Z,5.93
2023-04-19T08:10:07.721Z,5.15
2023-04-19T08:15:29.620Z,6.12
2023-04-19T08:20:36.940Z,5.85
2023-04-19T08:25:40.662Z,5.72
2023-04-19T08:30:46.004Z,5.18
2023-04-19T08:35:50.035Z,5.37
2023-04-19T08:40:56.101Z,5.57
2023-04-19T08:46:01.277Z,5.15
2023-04-19T08:51:06.386Z,5.40
2023-04-19T08:56:17.908Z,5.25
2023-04-19T09:01:36.133Z,5.07
2023-04-19T09:06:41.765Z,5.00
2023-04-19T09:11:45.945Z,4.90
2023-04-19T09:16:52.192Z,4.45
2023-04-19T09:21:56.444Z,3.80
2023-04-19T09:27:00.383Z,3.60
2023-04-19T09:32:06.146Z,3.47
2023-04-19T09:37:21.452Z,3.55
2023-04-19T09:48:04.268Z,2.75
2023-04-19T09:53:08.372Z,3.17
2023-04-19T09:58:12.157Z,3.05
2023-04-19T10:03:18.360Z,3.00
2023-04-19T10:08:22.238Z,2.85
2023-04-19T10:13:27.100Z,3.12
2023-04-19T10:18:33.388Z,2.72
2023-04-19T10:23:38.340Z,2.87
2023-04-19T10:28:42.842Z,3.03
2023-04-19T10:33:49.350Z,2.67
2023-04-19T10:38:53.612Z,2.47
2023-04-19T10:44:11.308Z,2.33
2023-04-19T10:49:16.728Z,2.53
2023-04-19T10:54:31.477Z,1.77
2023-04-19T10:59:36.662Z,1.80
2023-04-19T11:05:14.444Z,1.52
2023-04-19T11:10:29.928Z,1.70
2023-04-19T11:15:33.620Z,1.50
2023-04-19T11:20:38.668Z,1.67
2023-04-19T11:25:42.428Z,1.70
2023-04-19T11:30:46.531Z,1.55
2023-04-19T11:35:51.786Z,1.42
2023-04-19T11:41:00.451Z,1.70
2023-04-19T11:46:07.739Z,1.40
2023-04-19T11:51:16.167Z,1.73
2023-04-19T11:56:19.904Z,2.00
2023-04-19T12:01:25.195Z,1.50
2023-04-19T12:06:32.063Z,2.12
2023-04-19T12:11:45.558Z,1.73
2023-04-19T12:17:07.578Z,1.50
2023-04-19T12:22:19.629Z,1.60
2023-04-19T12:27:23.362Z,1.70
2023-04-19T12:32:27.277Z,2.05
2023-04-19T12:37:32.592Z,1.87
2023-04-19T12:42:36.327Z,1.40
2023-04-19T12:47:40.350Z,1.80
2023-04-19T12:52:46.538Z,1.62
2023-04-19T12:57:50.239Z,1.70
2023-04-19T13:02:54.455Z,2.03
2023-04-19T13:08:00.232Z,1.70
2023-04-19T13:13:03.977Z,1.92
2023-04-19T13:18:07.872Z,1.60
2023-04-19T13:23:12.956Z,1.60
2023-04-19T13:28:16.717Z,1.65
2023-04-19T13:33:20.533Z,1.83
2023-04-19T13:38:25.820Z,1.75
2023-04-19T13:43:29.502Z,1.50
2023-04-19T13:48:33.304Z,2.33
2023-04-19T13:53:39.731Z,1.40
2023-04-19T13:58:43.421Z,1.73
2023-04-19T14:03:47.366Z,1.90
2023-04-19T14:08:52.692Z,1.48
2023-04-19T14:13:57.120Z,1.70
2023-04-19T14:19:01.081Z,1.80
2023-04-19T14:24:07.784Z,2.12
2023-04-19T14:29:11.674Z,1.70
2023-04-19T14:34:15.397Z,1.77
2023-04-19T14:39:20.529Z,2.05
2023-04-19T14:44:24.252Z,2.50
2023-04-19T14:49:27.993Z,2.40
2023-04-19T14:54:33.143Z,2.78
2023-04-19T14:59:36.971Z,2.45
2023-04-19T15:04:41.537Z,2.20
2023-04-19T15:09:47.003Z,3.12
2023-04-19T15:14:50.741Z,2.30
2023-04-19T15:19:54.504Z,1.92
2023-04-19T15:25:01.606Z,2.10
2023-04-19T15:35:09.765Z,2.30
2023-04-19T15:40:17.045Z,2.22
2023-04-19T15:50:24.440Z,2.30
2023-04-19T15:55:29.725Z,2.67
2023-04-19T16:00:33.743Z,1.92
2023-04-19T16:05:37.527Z,2.03
2023-04-19T16:10:44.801Z,2.20
2023-04-19T16:20:54.155Z,2.30
2023-04-19T16:25:59.410Z,2.28
2023-04-19T16:31:03.331Z,1.90
2023-04-19T16:36:07.492Z,2.00
2023-04-19T16:41:12.914Z,2.15
2023-04-19T16:46:16.878Z,2.03
2023-04-19T16:51:20.757Z,2.28
2023-04-19T16:56:25.945Z,2.83
2023-04-19T17:01:29.926Z,2.12
2023-04-19T17:06:34.211Z,2.40
2023-04-19T17:11:39.439Z,2.60
2023-04-19T17:16:43.511Z,2.25
2023-04-19T17:21:47.942Z,2.25
2023-04-19T17:26:53.226Z,2.45
2023-04-19T17:31:57.133Z,2.60
2023-04-19T17:37:01.918Z,2.62
2023-04-19T17:42:07.212Z,2.53
2023-04-19T17:47:11.021Z,2.47
2023-04-19T17:52:15.030Z,2.58
2023-04-19T17:57:20.694Z,2.80
2023-04-19T18:02:24.931Z,3.20
2023-04-19T18:07:28.852Z,2.40
2023-04-19T18:12:34.129Z,2.70
2023-04-19T18:17:38.024Z,1.98
2023-04-19T18:22:41.943Z,2.37
2023-04-19T18:27:47.104Z,2.33
2023-04-19T18:32:50.876Z,2.30
2023-04-19T18:37:54.617Z,2.17
2023-04-19T18:42:59.740Z,2.35
2023-04-19T18:48:03.555Z,2.25
2023-04-19T18:53:07.221Z,2.33
2023-04-19T18:58:13.645Z,1.80
2023-04-19T19:03:43.825Z,1.67
2023-04-19T19:08:41.079Z,1.98
2023-04-19T19:13:46.505Z,1.83
2023-04-19T19:18:51.352Z,2.30
2023-04-19T19:23:57.731Z,2.08
2023-04-19T19:29:02.912Z,1.80
2023-04-19T19:34:23.372Z,1.70
2023-04-19T19:39:29.578Z,2.42
2023-04-19T19:44:34.702Z,2.22
2023-04-19T19:54:45.239Z,2.53
2023-04-19T19:59:56.016Z,2.42
2023-04-19T20:05:00.554Z,3.00
2023-04-19T20:10:04.601Z,2.22
2023-04-19T20:15:11.901Z,2.87
2023-04-19T20:20:15.733Z,3.20
2023-04-19T20:25:19.494Z,3.15
2023-04-19T20:30:24.784Z,2.80
2023-04-19T20:35:28.828Z,2.95
2023-04-19T20:40:33.096Z,2.90
2023-04-19T20:45:39.256Z,2.78
2023-04-19T20:50:43.799Z,2.85
2023-04-19T20:55:47.637Z,3.15
2023-04-19T21:00:52.752Z,2.67
2023-04-19T21:05:56.582Z,2.90
2023-04-19T21:11:00.618Z,3.12
2023-04-19T21:16:06.382Z,2.87
2023-04-19T21:21:10.168Z,2.95
2023-04-19T21:26:13.962Z,3.12
2023-04-19T21:31:19.047Z,3.15
2023-04-19T21:36:22.851Z,2.90
2023-04-19T21:41:26.630Z,2.70
2023-04-19T21:46:32.064Z,3.22
2023-04-19T21:51:35.984Z,2.67
2023-04-19T21:56:39.991Z,2.78
2023-04-19T22:01:45.954Z,2.60
2023-04-19T22:06:49.704Z,3.28
2023-04-19T22:11:53.381Z,2.53
2023-04-19T22:16:59.054Z,2.55
2023-04-19T22:22:02.905Z,2.90
2023-04-19T22:27:06.900Z,2.50
2023-04-19T22:32:12.066Z,2.67
2023-04-19T22:37:15.856Z,2.70
2023-04-19T22:42:19.580Z,2.70
2023-04-19T22:47:24.657Z,2.40
2023-04-19T22:52:28.670Z,3.60
2023-04-19T22:57:32.377Z,3.35
2023-04-19T23:02:38.082Z,2.53
2023-04-19T23:07:43.026Z,2.50
2023-04-19T23:12:46.954Z,2.45
2023-04-19T23:17:52.832Z,2.47
2023-04-19T23:22:56.641Z,2.10
2023-04-19T23:28:00.351Z,2.92
2023-04-19T23:33:05.864Z,2.20
2023-04-19T23:38:09.730Z,2.00
2023-04-19T23:43:13.473Z,2.62
2023-04-19T23:48:18.542Z,2.60
2023-04-19T23:53:22.236Z,2.85
2023-04-19T23:58:26.000Z,2.20
